Indianapolis, Indiana
Traffic Map
Current Weather Conditions
Indianapolis, Indiana
Overcast
Overcast
57°
Feels Like: 57°
Wind Chill: 57° Ceiling: 4600
Heat Index: 57° Visibility: 10mi
Dew Point: 56° Wind: 7mph
Humidity: 96% Direction: 110° (ESE)
Pressure: 29.89in Gusts: 0mph
Raw Report DataKIND 300754Z 11006KT 10SM BKN046 OVC060 14/13 A2989 RMK AO2 SLP117 T01390133 $
Traffic Incident Summary
Active as of:
Severity:
Category:
InformationThere was an issue retrieving the traffic information for this location. Please try a different location or try again shortly.
Advertisements
Track Severe Weather on mobile